createdAt,value
2023-03-11T00:00:54.209Z,99261.00
2023-03-11T00:03:29.090Z,99271.00
2023-03-11T00:06:04.468Z,99266.00
2023-03-11T00:08:38.372Z,99282.00
2023-03-11T00:11:13.847Z,99291.00
2023-03-11T00:13:47.377Z,99263.00
2023-03-11T00:16:21.314Z,99311.00
2023-03-11T00:18:55.125Z,99315.00
2023-03-11T00:21:29.116Z,99315.00
2023-03-11T00:24:04.055Z,99318.00
2023-03-11T00:26:39.013Z,99324.00
2023-03-11T00:29:12.675Z,99322.00
2023-03-11T00:31:46.528Z,99324.00
2023-03-11T00:34:20.257Z,99324.00
2023-03-11T00:36:53.777Z,99351.00
2023-03-11T00:39:27.324Z,99349.00
2023-03-11T00:42:02.422Z,99347.00
2023-03-11T00:44:36.227Z,99348.00
2023-03-11T00:47:12.295Z,99350.00
2023-03-11T00:49:46.165Z,99345.00
2023-03-11T00:52:20.476Z,99345.00
2023-03-11T00:54:54.234Z,99354.00
2023-03-11T00:57:32.013Z,99354.00
2023-03-11T01:00:07.511Z,99356.00
2023-03-11T01:02:41.117Z,99337.00
2023-03-11T01:05:15.761Z,99372.00
2023-03-11T01:07:49.709Z,99385.00
2023-03-11T01:10:25.300Z,99392.00
2023-03-11T01:13:00.580Z,99396.00
2023-03-11T01:15:37.412Z,99398.00
2023-03-11T01:18:11.490Z,99389.00
2023-03-11T01:20:45.406Z,99399.00
2023-03-11T01:23:23.272Z,99385.00
2023-03-11T01:25:58.001Z,99372.00
2023-03-11T01:28:33.294Z,99384.00
2023-03-11T01:31:07.285Z,99398.00
2023-03-11T01:33:41.742Z,99397.00
2023-03-11T01:36:15.683Z,99403.00
2023-03-11T01:38:49.569Z,99405.00
2023-03-11T01:41:23.477Z,99395.00
2023-03-11T01:43:59.580Z,99404.00
2023-03-11T01:47:00.316Z,99416.00
2023-03-11T01:49:34.524Z,99410.00
2023-03-11T01:52:09.687Z,99425.00
2023-03-11T01:54:44.224Z,99414.00
2023-03-11T01:57:18.234Z,99421.00
2023-03-11T01:59:59.140Z,99418.00
2023-03-11T02:02:39.056Z,99422.00
2023-03-11T02:05:13.290Z,99415.00
2023-03-11T02:07:48.097Z,99415.00
2023-03-11T02:10:22.457Z,99416.00
2023-03-11T02:12:56.364Z,99433.00
2023-03-11T02:15:32.316Z,99420.00
2023-03-11T02:18:08.459Z,99411.00
2023-03-11T02:20:50.929Z,99435.00
2023-03-11T02:23:31.938Z,99428.00
2023-03-11T02:26:12.824Z,99414.00
2023-03-11T02:28:51.756Z,99425.00
2023-03-11T02:31:27.894Z,99422.00
2023-03-11T02:34:07.448Z,99416.00
2023-03-11T02:36:43.492Z,99423.00
2023-03-11T02:39:17.532Z,99425.00
2023-03-11T02:41:51.511Z,99425.00
2023-03-11T02:44:27.345Z,99420.00
2023-03-11T02:47:02.129Z,99424.00
2023-03-11T02:49:37.738Z,99433.00
2023-03-11T02:52:11.565Z,99433.00
2023-03-11T02:54:45.552Z,99429.00
2023-03-11T02:57:19.130Z,99436.00
2023-03-11T02:59:54.397Z,99429.00
2023-03-11T03:02:28.372Z,99438.00
2023-03-11T03:05:02.149Z,99438.00
2023-03-11T03:07:35.913Z,99438.00
2023-03-11T03:10:12.969Z,99446.00
2023-03-11T03:12:46.593Z,99449.00
2023-03-11T03:15:21.893Z,99447.00
2023-03-11T03:17:55.310Z,99441.00
2023-03-11T03:20:29.476Z,99450.00
2023-03-11T03:23:03.359Z,99456.00
2023-03-11T03:25:37.077Z,99439.00
2023-03-11T03:28:10.969Z,99456.00
2023-03-11T03:30:46.774Z,99448.00
2023-03-11T03:33:20.755Z,99454.00
2023-03-11T03:35:54.512Z,99459.00
2023-03-11T03:38:28.591Z,99462.00
2023-03-11T03:41:02.275Z,99464.00
2023-03-11T03:43:36.017Z,99464.00
2023-03-11T03:46:11.822Z,99475.00
2023-03-11T03:48:45.478Z,99475.00
2023-03-11T03:51:19.915Z,99481.00
2023-03-11T03:53:53.656Z,99479.00
2023-03-11T03:56:27.321Z,99479.00
2023-03-11T03:59:00.858Z,99484.00
2023-03-11T04:01:35.991Z,99495.00
2023-03-11T04:04:09.734Z,99506.00
2023-03-11T04:06:45.689Z,99507.00
2023-03-11T04:09:19.969Z,99506.00
2023-03-11T04:11:53.712Z,99496.00
2023-03-11T04:14:27.381Z,99502.00
2023-03-11T04:17:03.086Z,99505.00
2023-03-11T04:19:37.394Z,99508.00
2023-03-11T04:22:10.842Z,99519.00
2023-03-11T04:24:44.669Z,99491.00
2023-03-11T04:27:18.497Z,99515.00
2023-03-11T04:29:52.432Z,99526.00
2023-03-11T04:32:28.864Z,99525.00
2023-03-11T04:35:02.581Z,99534.00
2023-03-11T04:37:36.346Z,99535.00
2023-03-11T04:40:12.090Z,99530.00
2023-03-11T04:42:46.470Z,99543.00
2023-03-11T04:45:20.561Z,99511.00
2023-03-11T04:47:55.537Z,99547.00
2023-03-11T04:50:29.376Z,99548.00
2023-03-11T04:53:03.124Z,99557.00
2023-03-11T04:55:37.088Z,99554.00
2023-03-11T04:58:11.298Z,99557.00
2023-03-11T05:00:44.810Z,99574.00
2023-03-11T05:03:19.887Z,99580.00
2023-03-11T05:05:56.789Z,99569.00
2023-03-11T05:08:31.126Z,99568.00
2023-03-11T05:11:05.033Z,99571.00
2023-03-11T05:13:38.634Z,99578.00
2023-03-11T05:16:13.363Z,99581.00
2023-03-11T05:18:48.613Z,99573.00
2023-03-11T05:21:22.220Z,99582.00
2023-03-11T05:23:56.035Z,99580.00
2023-03-11T05:26:30.878Z,99586.00
2023-03-11T05:29:04.783Z,99596.00
2023-03-11T05:31:39.278Z,99593.00
2023-03-11T05:34:14.989Z,99588.00
2023-03-11T05:36:49.065Z,99574.00
2023-03-11T05:39:23.798Z,99592.00
2023-03-11T05:41:58.207Z,99598.00
2023-03-11T05:44:32.600Z,99603.00
2023-03-11T05:47:06.608Z,99607.00
2023-03-11T05:49:41.988Z,99598.00
2023-03-11T05:52:15.815Z,99607.00
2023-03-11T05:54:52.516Z,99592.00
2023-03-11T05:57:26.350Z,99610.00
2023-03-11T06:00:00.200Z,99604.00
2023-03-11T06:02:34.047Z,99613.00
2023-03-11T06:05:13.553Z,99599.00
2023-03-11T06:07:47.534Z,99607.00
2023-03-11T06:10:21.199Z,99617.00
2023-03-11T06:12:54.875Z,99615.00
2023-03-11T06:15:28.560Z,99621.00
2023-03-11T06:18:02.162Z,99605.00
2023-03-11T06:20:38.752Z,99623.00
2023-03-11T06:23:12.387Z,99625.00
2023-03-11T06:25:47.505Z,99624.00
2023-03-11T06:28:21.463Z,99630.00
2023-03-11T06:30:57.179Z,99643.00
2023-03-11T06:33:31.087Z,99640.00
2023-03-11T06:36:08.431Z,99647.00
2023-03-11T06:38:42.282Z,99622.00
2023-03-11T06:41:17.861Z,99647.00
2023-03-11T06:43:51.727Z,99653.00
2023-03-11T06:46:25.445Z,99660.00
2023-03-11T06:48:59.332Z,99664.00
2023-03-11T06:51:35.117Z,99645.00
2023-03-11T06:54:09.068Z,99663.00
2023-03-11T06:56:42.844Z,99676.00
2023-03-11T06:59:17.036Z,99675.00
2023-03-11T07:01:51.331Z,99682.00
2023-03-11T07:04:24.877Z,99670.00
2023-03-11T07:07:00.972Z,99689.00
2023-03-11T07:09:34.567Z,99694.00
2023-03-11T07:12:09.049Z,99698.00
2023-03-11T07:14:42.678Z,99696.00
2023-03-11T07:17:16.425Z,99713.00
2023-03-11T07:19:50.348Z,99712.00
2023-03-11T07:22:25.721Z,99723.00
2023-03-11T07:24:59.804Z,99721.00
2023-03-11T07:27:33.893Z,99706.00
2023-03-11T07:30:09.748Z,99732.00
2023-03-11T07:32:43.937Z,99737.00
2023-03-11T07:35:17.975Z,99732.00
2023-03-11T07:37:53.238Z,99724.00
2023-03-11T07:40:26.809Z,99752.00
2023-03-11T07:43:00.531Z,99734.00
2023-03-11T07:45:34.185Z,99758.00
2023-03-11T07:48:08.447Z,99761.00
2023-03-11T07:50:41.886Z,99760.00
2023-03-11T07:53:17.373Z,99773.00
2023-03-11T07:55:56.640Z,99776.00
2023-03-11T07:58:31.744Z,99778.00
2023-03-11T08:01:09.238Z,99770.00
2023-03-11T08:03:43.260Z,99778.00
2023-03-11T08:06:20.632Z,99779.00
2023-03-11T08:08:55.817Z,99791.00
2023-03-11T08:11:32.584Z,99792.00
2023-03-11T08:14:06.981Z,99793.00
2023-03-11T08:16:42.444Z,99794.00
2023-03-11T08:19:16.497Z,99801.00
2023-03-11T08:21:50.443Z,99801.00
2023-03-11T08:24:25.993Z,99803.00
2023-03-11T08:26:59.480Z,99803.00
2023-03-11T08:29:33.393Z,99797.00
2023-03-11T08:32:08.063Z,99805.00
2023-03-11T08:34:41.573Z,99798.00
2023-03-11T08:37:15.888Z,99770.00
2023-03-11T08:39:51.201Z,99803.00
2023-03-11T08:42:24.826Z,99806.00
2023-03-11T08:44:58.468Z,99803.00
2023-03-11T08:47:36.334Z,99817.00
2023-03-11T08:50:16.706Z,99820.00
2023-03-11T08:52:50.586Z,99812.00
2023-03-11T08:55:27.829Z,99806.00
2023-03-11T08:58:01.568Z,99817.00
2023-03-11T09:00:35.529Z,99812.00
2023-03-11T09:03:10.188Z,99790.00
2023-03-11T09:05:43.536Z,99810.00
2023-03-11T09:08:17.330Z,99812.00
2023-03-11T09:10:52.637Z,99810.00
2023-03-11T09:13:27.337Z,99831.00
2023-03-11T09:16:01.551Z,99824.00
2023-03-11T09:18:35.749Z,99827.00
2023-03-11T09:21:09.795Z,99830.00
2023-03-11T09:23:44.702Z,99825.00
2023-03-11T09:26:20.552Z,99831.00
2023-03-11T09:28:54.335Z,99826.00
2023-03-11T09:31:27.878Z,99819.00
2023-03-11T09:34:02.358Z,99827.00
2023-03-11T09:36:36.216Z,99811.00
2023-03-11T09:39:10.326Z,99840.00
2023-03-11T09:41:58.255Z,99845.00
2023-03-11T09:44:41.523Z,99843.00
2023-03-11T09:47:39.934Z,99846.00
2023-03-11T09:50:34.532Z,99849.00
2023-03-11T09:53:28.109Z,99858.00
2023-03-11T09:56:05.381Z,99848.00
2023-03-11T09:58:45.792Z,99854.00
2023-03-11T10:01:28.120Z,99832.00
2023-03-11T10:04:13.169Z,99841.00
2023-03-11T10:06:49.288Z,99852.00
2023-03-11T10:09:39.708Z,99865.00
2023-03-11T10:12:35.646Z,99868.00
2023-03-11T10:18:37.051Z,99884.00
2023-03-11T10:21:22.080Z,99881.00
2023-03-11T10:24:16.679Z,99867.00
2023-03-11T10:26:58.880Z,99885.00
2023-03-11T10:29:45.048Z,99892.00
2023-03-11T10:32:30.529Z,99880.00
2023-03-11T10:35:18.684Z,99877.00
2023-03-11T10:37:59.584Z,99866.00
2023-03-11T10:40:40.193Z,99883.00
2023-03-11T10:43:18.589Z,99867.00
2023-03-11T10:45:53.417Z,99873.00
2023-03-11T10:48:28.235Z,99865.00
2023-03-11T10:51:18.367Z,99881.00
2023-03-11T10:53:55.444Z,99890.00
2023-03-11T10:56:32.916Z,99894.00
2023-03-11T10:59:25.289Z,99891.00
2023-03-11T11:02:02.598Z,99902.00
2023-03-11T11:04:41.089Z,99874.00
2023-03-11T11:07:32.433Z,99893.00
2023-03-11T11:10:20.049Z,99879.00
2023-03-11T11:12:59.519Z,99903.00
2023-03-11T11:15:36.314Z,99890.00
2023-03-11T11:18:23.490Z,99894.00
2023-03-11T11:21:07.312Z,99873.00
2023-03-11T11:23:49.500Z,99888.00
2023-03-11T11:26:27.720Z,99882.00
2023-03-11T11:29:14.955Z,99883.00
2023-03-11T11:31:49.020Z,99878.00
2023-03-11T11:34:35.041Z,99882.00
2023-03-11T11:37:14.262Z,99881.00
2023-03-11T11:39:54.759Z,99884.00
2023-03-11T11:42:33.166Z,99870.00
2023-03-11T11:45:17.314Z,99890.00
2023-03-11T11:47:57.021Z,99887.00
2023-03-11T11:50:36.660Z,99895.00
2023-03-11T11:53:25.115Z,99881.00
2023-03-11T11:56:00.868Z,99876.00
2023-03-11T11:58:36.387Z,99874.00
2023-03-11T12:01:20.967Z,99871.00
2023-03-11T12:04:33.153Z,99872.00
2023-03-11T12:07:31.330Z,99863.00
2023-03-11T12:10:24.121Z,99877.00
2023-03-11T12:13:36.428Z,99882.00
2023-03-11T12:16:25.759Z,99871.00
2023-03-11T12:19:05.841Z,99880.00
2023-03-11T12:22:15.200Z,99860.00
2023-03-11T12:25:19.370Z,99884.00
2023-03-11T12:28:02.112Z,99886.00
2023-03-11T12:30:44.006Z,99907.00
2023-03-11T12:33:28.551Z,99893.00
2023-03-11T12:36:04.381Z,99887.00
2023-03-11T12:38:42.134Z,99903.00
2023-03-11T12:41:37.050Z,99897.00
2023-03-11T12:44:34.908Z,99905.00
2023-03-11T12:47:27.526Z,99899.00
2023-03-11T12:50:39.967Z,99895.00
2023-03-11T12:53:20.072Z,99889.00
2023-03-11T12:56:09.738Z,99897.00
2023-03-11T12:59:32.313Z,99893.00
2023-03-11T13:02:29.863Z,99895.00
2023-03-11T13:05:19.556Z,99905.00
2023-03-11T13:08:05.215Z,99904.00
2023-03-11T13:10:42.589Z,99902.00
2023-03-11T13:13:41.165Z,99905.00
2023-03-11T13:16:42.394Z,99905.00
2023-03-11T13:19:50.262Z,99904.00
2023-03-11T13:23:00.836Z,99896.00
2023-03-11T13:25:41.189Z,99899.00
2023-03-11T13:28:59.424Z,99896.00
2023-03-11T13:31:56.086Z,99890.00
2023-03-11T13:34:45.840Z,99893.00
2023-03-11T13:37:36.276Z,99891.00
2023-03-11T13:40:24.710Z,99891.00
2023-03-11T13:43:05.354Z,99871.00
2023-03-11T13:45:41.678Z,99896.00
2023-03-11T13:48:21.887Z,99893.00
2023-03-11T13:51:03.489Z,99888.00
2023-03-11T13:53:46.508Z,99894.00
2023-03-11T13:56:28.131Z,99901.00
2023-03-11T13:59:17.913Z,99894.00
2023-03-11T14:01:53.633Z,99899.00
2023-03-11T14:04:32.940Z,99892.00
2023-03-11T14:07:25.139Z,99883.00
2023-03-11T14:10:22.568Z,99899.00
2023-03-11T14:13:18.982Z,99889.00
2023-03-11T14:16:05.742Z,99905.00
2023-03-11T14:18:42.164Z,99899.00
2023-03-11T14:21:19.976Z,99908.00
2023-03-11T14:23:56.826Z,99899.00
2023-03-11T14:26:36.251Z,99899.00
2023-03-11T14:29:16.833Z,99903.00
2023-03-11T14:31:50.626Z,99904.00
2023-03-11T14:34:28.223Z,99918.00
2023-03-11T14:37:05.508Z,99905.00
2023-03-11T14:39:53.404Z,99917.00
2023-03-11T14:42:33.449Z,99921.00
2023-03-11T14:45:15.775Z,99922.00
2023-03-11T14:47:59.136Z,99921.00
2023-03-11T14:50:37.263Z,99921.00
2023-03-11T14:53:19.572Z,99920.00
2023-03-11T14:56:00.398Z,99916.00
2023-03-11T14:58:39.214Z,99900.00
2023-03-11T15:01:19.024Z,99922.00
2023-03-11T15:03:58.720Z,99924.00
2023-03-11T15:06:35.355Z,99926.00
2023-03-11T15:09:15.177Z,99923.00
2023-03-11T15:11:55.357Z,99924.00
2023-03-11T15:14:31.691Z,99930.00
2023-03-11T15:17:41.311Z,99926.00
2023-03-11T15:20:29.757Z,99927.00
2023-03-11T15:23:05.442Z,99932.00
2023-03-11T15:25:41.019Z,99928.00
2023-03-11T15:28:26.518Z,99928.00
2023-03-11T15:31:37.340Z,99928.00
2023-03-11T15:34:25.587Z,99931.00
2023-03-11T15:37:21.674Z,99926.00
2023-03-11T15:39:59.781Z,99920.00
2023-03-11T15:42:33.997Z,99926.00
2023-03-11T15:45:19.515Z,99930.00
2023-03-11T15:47:54.512Z,99932.00
2023-03-11T15:50:43.043Z,99933.00
2023-03-11T15:53:27.362Z,99936.00
2023-03-11T15:56:11.796Z,99927.00
2023-03-11T15:58:45.494Z,99942.00
2023-03-11T16:01:28.760Z,99946.00
2023-03-11T16:04:02.381Z,99943.00
2023-03-11T16:06:35.958Z,99935.00
2023-03-11T16:09:10.041Z,99919.00
2023-03-11T16:11:44.925Z,99938.00
2023-03-11T16:14:21.850Z,99919.00
2023-03-11T16:16:56.986Z,99938.00
2023-03-11T16:19:30.942Z,99951.00
2023-03-11T16:22:06.100Z,99943.00
2023-03-11T16:24:39.705Z,99943.00
2023-03-11T16:27:18.429Z,99944.00
2023-03-11T16:29:53.199Z,99942.00
2023-03-11T16:32:28.571Z,99935.00
2023-03-11T16:35:02.468Z,99941.00
2023-03-11T16:37:36.322Z,99955.00
2023-03-11T16:40:14.651Z,99949.00
2023-03-11T16:42:49.253Z,99947.00
2023-03-11T16:45:22.986Z,99952.00
2023-03-11T16:47:58.112Z,99952.00
2023-03-11T16:50:31.945Z,99955.00
2023-03-11T16:53:05.768Z,99964.00
2023-03-11T16:55:39.566Z,99956.00
2023-03-11T16:58:13.581Z,99953.00
2023-03-11T17:00:48.372Z,99955.00
2023-03-11T17:03:23.985Z,99966.00
2023-03-11T17:06:05.601Z,99948.00
2023-03-11T17:08:39.359Z,99963.00
2023-03-11T17:11:18.519Z,99949.00
2023-03-11T17:13:54.220Z,99974.00
2023-03-11T17:16:29.355Z,99971.00
2023-03-11T17:19:04.594Z,99971.00
2023-03-11T17:21:38.788Z,99973.00
2023-03-11T17:24:15.190Z,99975.00
2023-03-11T17:26:49.013Z,99977.00
2023-03-11T17:29:22.866Z,99979.00
2023-03-11T17:31:56.744Z,99970.00
2023-03-11T17:34:32.070Z,99982.00
2023-03-11T17:37:05.853Z,99988.00
2023-03-11T17:39:40.088Z,99978.00
2023-03-11T17:42:13.935Z,99978.00
2023-03-11T17:44:51.798Z,99987.00
2023-03-11T17:47:27.450Z,99985.00
2023-03-11T17:50:03.534Z,99993.00
2023-03-11T17:52:36.987Z,99994.00
2023-03-11T17:55:11.672Z,99977.00
2023-03-11T17:57:46.093Z,99996.00
2023-03-11T18:00:21.315Z,99990.00
2023-03-11T18:02:55.157Z,99991.00
2023-03-11T18:05:30.644Z,99990.00
2023-03-11T18:08:05.682Z,99987.00
2023-03-11T18:10:39.344Z,99992.00
2023-03-11T18:13:13.221Z,100004.00
2023-03-11T18:15:47.307Z,99996.00
2023-03-11T18:18:21.117Z,100007.00
2023-03-11T18:20:56.591Z,99987.00
2023-03-11T18:23:33.342Z,100007.00
2023-03-11T18:26:10.496Z,100004.00
2023-03-11T18:28:44.763Z,99998.00
2023-03-11T18:31:22.051Z,100003.00
2023-03-11T18:34:00.966Z,100001.00
2023-03-11T18:36:38.374Z,99971.00
2023-03-11T18:39:14.218Z,100000.00
2023-03-11T18:41:48.298Z,100003.00
2023-03-11T18:44:23.574Z,99998.00
2023-03-11T18:46:57.069Z,99999.00
2023-03-11T18:49:30.740Z,99999.00
2023-03-11T18:52:06.695Z,99993.00
2023-03-11T18:54:41.247Z,100013.00
2023-03-11T18:57:15.204Z,100006.00
2023-03-11T18:59:50.135Z,100007.00
2023-03-11T19:02:24.069Z,100012.00
2023-03-11T19:04:58.176Z,100017.00
2023-03-11T19:07:33.613Z,100024.00
2023-03-11T19:10:08.409Z,100022.00
2023-03-11T19:12:44.682Z,100020.00
2023-03-11T19:15:18.919Z,100014.00
2023-03-11T19:18:05.878Z,100008.00
2023-03-11T19:20:41.095Z,100005.00
2023-03-11T19:23:17.843Z,100006.00
2023-03-11T19:26:02.523Z,100020.00
2023-03-11T19:28:37.784Z,100016.00
2023-03-11T19:31:12.063Z,100012.00
2023-03-11T19:33:50.067Z,100022.00
2023-03-11T19:36:23.807Z,100025.00
2023-03-11T19:39:00.052Z,100022.00
2023-03-11T19:41:34.275Z,100025.00
2023-03-11T19:44:08.261Z,100025.00
2023-03-11T19:46:42.068Z,100026.00
2023-03-11T19:49:15.834Z,100023.00
2023-03-11T19:51:50.801Z,100014.00
2023-03-11T19:54:25.690Z,100001.00
2023-03-11T19:56:59.325Z,100011.00
2023-03-11T19:59:33.173Z,100026.00
2023-03-11T20:02:07.254Z,100024.00
2023-03-11T20:04:43.135Z,100021.00
2023-03-11T20:07:17.436Z,100016.00
2023-03-11T20:09:52.835Z,100021.00
2023-03-11T20:12:26.697Z,100025.00
2023-03-11T20:15:00.426Z,100017.00
2023-03-11T20:17:34.129Z,100025.00
2023-03-11T20:20:09.741Z,100023.00
2023-03-11T20:22:43.958Z,100026.00
2023-03-11T20:25:19.808Z,100024.00
2023-03-11T20:27:53.431Z,100027.00
2023-03-11T20:30:29.546Z,100014.00
2023-03-11T20:33:04.385Z,100016.00
2023-03-11T20:35:38.455Z,100026.00
2023-03-11T20:38:16.112Z,100021.00
2023-03-11T20:40:57.080Z,100017.00
2023-03-11T20:43:31.075Z,100017.00
2023-03-11T20:46:06.625Z,100021.00
2023-03-11T20:48:41.456Z,100022.00
2023-03-11T20:51:21.017Z,100027.00
2023-03-11T20:53:54.915Z,100026.00
2023-03-11T20:56:30.937Z,100018.00
2023-03-11T20:59:07.381Z,100015.00
2023-03-11T21:01:41.168Z,100014.00
2023-03-11T21:04:16.668Z,100017.00
2023-03-11T21:06:52.540Z,100023.00
2023-03-11T21:09:27.565Z,100021.00
2023-03-11T21:12:02.918Z,100022.00
2023-03-11T21:14:36.683Z,100014.00
2023-03-11T21:17:10.836Z,100031.00
2023-03-11T21:19:45.183Z,100012.00
2023-03-11T21:22:18.842Z,100018.00
2023-03-11T21:24:53.992Z,100030.00
2023-03-11T21:27:29.430Z,100032.00
2023-03-11T21:30:04.293Z,100030.00
2023-03-11T21:32:38.109Z,100026.00
2023-03-11T21:35:11.856Z,100022.00
2023-03-11T21:37:46.943Z,100020.00
2023-03-11T21:40:21.532Z,100015.00
2023-03-11T21:42:57.067Z,100015.00
2023-03-11T21:45:30.881Z,100007.00
2023-03-11T21:48:06.741Z,100009.00
2023-03-11T21:50:42.020Z,100003.00
2023-03-11T21:53:16.282Z,100003.00
2023-03-11T21:55:51.658Z,99992.00
2023-03-11T21:58:29.897Z,99998.00
2023-03-11T22:01:04.333Z,99998.00
2023-03-11T22:03:39.287Z,100000.00
2023-03-11T22:06:14.257Z,99996.00
2023-03-11T22:08:48.190Z,100005.00
2023-03-11T22:11:22.101Z,100011.00
2023-03-11T22:14:00.567Z,100022.00
2023-03-11T22:16:34.469Z,100012.00
2023-03-11T22:19:10.153Z,100004.00
2023-03-11T22:21:44.264Z,100005.00
2023-03-11T22:24:17.818Z,100020.00
2023-03-11T22:26:52.943Z,100012.00
2023-03-11T22:29:28.079Z,100009.00
2023-03-11T22:32:01.802Z,100027.00
2023-03-11T22:34:35.544Z,100026.00
2023-03-11T22:37:09.721Z,100024.00
2023-03-11T22:39:43.563Z,100015.00
2023-03-11T22:42:17.433Z,100020.00
2023-03-11T22:44:52.850Z,100013.00
2023-03-11T22:47:26.707Z,100004.00
2023-03-11T22:50:00.748Z,100003.00
2023-03-11T22:52:34.279Z,100019.00
2023-03-11T22:55:09.022Z,100016.00
2023-03-11T22:57:42.772Z,100016.00
2023-03-11T23:00:23.832Z,100020.00
2023-03-11T23:02:58.468Z,100015.00
2023-03-11T23:05:33.082Z,100022.00
2023-03-11T23:08:06.757Z,100012.00
2023-03-11T23:10:42.714Z,100008.00
2023-03-11T23:13:17.333Z,100017.00
2023-03-11T23:15:52.897Z,100009.00
2023-03-11T23:18:26.457Z,100003.00
2023-03-11T23:21:00.707Z,100006.00
2023-03-11T23:23:34.387Z,100007.00
2023-03-11T23:26:10.596Z,100013.00
2023-03-11T23:28:47.110Z,99983.00
2023-03-11T23:31:25.256Z,100009.00
2023-03-11T23:33:59.264Z,100004.00
2023-03-11T23:36:33.305Z,100003.00
2023-03-11T23:39:07.138Z,100002.00
2023-03-11T23:41:40.810Z,100001.00
2023-03-11T23:44:14.848Z,99994.00
2023-03-11T23:46:50.236Z,99998.00
2023-03-11T23:49:26.469Z,99979.00
2023-03-11T23:52:00.207Z,99998.00
2023-03-11T23:54:33.757Z,99999.00
2023-03-11T23:57:07.717Z,99996.00
2023-03-11T23:59:41.268Z,99984.00
